createdAt,value
2022-11-04T00:02:05.323Z,5.15
2022-11-04T00:04:32.212Z,2.78
2022-11-04T00:06:58.990Z,4.28
2022-11-04T00:09:28.501Z,4.43
2022-11-04T00:12:14.219Z,4.95
2022-11-04T00:14:41.014Z,3.90
2022-11-04T00:17:21.830Z,5.65
2022-11-04T00:20:12.243Z,5.18
2022-11-04T00:22:59.581Z,2.83
2022-11-04T00:25:45.142Z,4.57
2022-11-04T00:28:31.889Z,4.72
2022-11-04T00:31:19.847Z,4.68
2022-11-04T00:33:48.679Z,4.78
2022-11-04T00:36:15.976Z,4.03
2022-11-04T00:38:42.930Z,3.95
2022-11-04T00:41:28.787Z,4.00
2022-11-04T00:44:00.672Z,3.00
2022-11-04T00:46:29.375Z,3.47
2022-11-04T00:48:56.120Z,2.67
2022-11-04T00:51:23.432Z,3.22
2022-11-04T00:53:50.739Z,2.78
2022-11-04T00:56:17.475Z,3.45
2022-11-04T00:58:44.174Z,2.92
2022-11-04T01:01:13.587Z,2.30
2022-11-04T01:03:40.437Z,2.75
2022-11-04T01:06:07.274Z,2.20
2022-11-04T01:08:34.623Z,2.50
2022-11-04T01:11:06.764Z,1.95
2022-11-04T01:13:34.255Z,2.08
2022-11-04T01:16:02.229Z,2.15
2022-11-04T01:18:29.193Z,0.80
2022-11-04T01:21:00.208Z,1.65
2022-11-04T01:23:27.678Z,2.28
2022-11-04T01:25:54.416Z,2.65
2022-11-04T01:28:21.164Z,1.85
2022-11-04T01:30:47.873Z,0.80
2022-11-04T01:33:14.680Z,2.15
2022-11-04T01:35:41.564Z,1.85
2022-11-04T01:38:08.551Z,2.10
2022-11-04T01:40:40.137Z,1.55
2022-11-04T01:43:14.905Z,1.02
2022-11-04T01:45:45.050Z,1.33
2022-11-04T01:48:22.225Z,1.05
2022-11-04T01:50:51.190Z,1.65
2022-11-04T01:53:31.929Z,1.10
2022-11-04T01:56:01.701Z,0.82
2022-11-04T01:58:32.348Z,1.65
2022-11-04T02:00:59.190Z,1.02
2022-11-04T02:03:44.568Z,1.48
2022-11-04T02:06:11.625Z,1.48
2022-11-04T02:08:39.489Z,1.33
2022-11-04T02:11:06.644Z,1.00
2022-11-04T02:13:35.567Z,1.10
2022-11-04T02:16:39.003Z,1.08
2022-11-04T02:19:20.754Z,0.90
2022-11-04T02:22:38.140Z,1.25
2022-11-04T02:25:26.094Z,0.63
2022-11-04T02:28:11.622Z,0.70
2022-11-04T02:30:54.891Z,0.85
2022-11-04T02:33:27.712Z,0.90
2022-11-04T02:36:12.481Z,0.68
2022-11-04T02:39:07.900Z,0.60
2022-11-04T02:41:41.990Z,0.80
2022-11-04T02:44:33.287Z,0.98
2022-11-04T02:47:06.441Z,0.70
2022-11-04T02:49:57.347Z,0.98
2022-11-04T02:52:39.632Z,0.90
2022-11-04T02:55:14.406Z,0.93
2022-11-04T02:57:42.987Z,0.88
2022-11-04T03:00:13.298Z,0.77
2022-11-04T03:03:00.481Z,0.95
2022-11-04T03:05:31.768Z,0.88
2022-11-04T03:08:04.353Z,0.60
2022-11-04T03:10:38.358Z,0.68
2022-11-04T03:13:20.258Z,0.90
2022-11-04T03:15:55.805Z,0.70
2022-11-04T03:18:34.669Z,0.90
2022-11-04T03:21:05.275Z,0.88
2022-11-04T03:23:32.736Z,0.63
2022-11-04T03:26:28.513Z,0.70
2022-11-04T03:29:04.074Z,0.43
2022-11-04T03:31:50.520Z,0.63
2022-11-04T03:34:17.289Z,0.95
2022-11-04T03:36:44.242Z,0.57
2022-11-04T03:39:10.986Z,0.70
2022-11-04T03:41:55.494Z,0.52
2022-11-04T03:44:23.214Z,0.68
2022-11-04T03:46:54.097Z,0.60
2022-11-04T03:49:24.539Z,0.50
2022-11-04T03:51:52.085Z,0.63
2022-11-04T03:54:19.548Z,0.77
2022-11-04T03:57:04.463Z,0.77
2022-11-04T03:59:55.440Z,0.50
2022-11-04T04:02:52.243Z,0.70
2022-11-04T04:05:19.101Z,0.70
2022-11-04T04:08:15.576Z,0.40
2022-11-04T04:11:01.004Z,0.60
2022-11-04T04:13:42.660Z,0.60
2022-11-04T04:16:12.195Z,0.60
2022-11-04T04:19:11.393Z,0.75
2022-11-04T04:21:45.270Z,0.63
2022-11-04T04:24:44.965Z,0.68
2022-11-04T04:27:31.067Z,0.68
2022-11-04T04:30:01.672Z,0.45
2022-11-04T04:32:32.693Z,0.63
2022-11-04T04:35:18.131Z,0.68
2022-11-04T04:37:46.075Z,0.60
2022-11-04T04:40:37.349Z,0.85
2022-11-04T04:43:23.736Z,0.68
2022-11-04T04:45:55.466Z,0.50
2022-11-04T04:48:22.229Z,0.40
2022-11-04T04:50:52.511Z,0.55
2022-11-04T04:53:19.275Z,0.43
2022-11-04T04:55:46.012Z,0.57
2022-11-04T04:58:12.698Z,0.80
2022-11-04T05:00:41.531Z,0.50
2022-11-04T05:03:08.730Z,0.40
2022-11-04T05:05:35.740Z,0.20
2022-11-04T05:08:07.181Z,0.55
2022-11-04T05:10:34.355Z,0.70
2022-11-04T05:13:20.160Z,0.57
2022-11-04T05:15:46.861Z,0.50
2022-11-04T05:18:13.664Z,0.75
2022-11-04T05:20:40.603Z,0.75
2022-11-04T05:23:08.673Z,0.40
2022-11-04T05:25:35.599Z,0.63
2022-11-04T05:28:02.817Z,0.77
2022-11-04T05:30:29.993Z,0.73
2022-11-04T05:33:00.047Z,0.68
2022-11-04T05:35:33.435Z,0.60
2022-11-04T05:38:00.316Z,0.88
2022-11-04T05:40:27.090Z,0.68
2022-11-04T05:42:53.887Z,0.77
2022-11-04T05:45:20.637Z,0.63
2022-11-04T05:47:47.345Z,0.50
2022-11-04T05:50:14.023Z,0.68
2022-11-04T05:52:40.801Z,0.30
2022-11-04T05:55:07.971Z,0.60
2022-11-04T05:57:35.644Z,0.60
2022-11-04T06:00:02.734Z,0.40
2022-11-04T06:02:31.279Z,0.60
2022-11-04T06:04:58.132Z,0.50
2022-11-04T06:07:24.895Z,0.65
2022-11-04T06:09:51.563Z,0.75
2022-11-04T06:12:18.415Z,0.50
2022-11-04T06:14:45.266Z,0.88
2022-11-04T06:17:20.094Z,0.60
2022-11-04T06:19:47.216Z,0.77
2022-11-04T06:22:19.218Z,0.63
2022-11-04T06:24:46.111Z,0.77
2022-11-04T06:27:13.121Z,0.38
2022-11-04T06:29:41.163Z,0.70
2022-11-04T06:32:13.875Z,0.73
2022-11-04T06:34:41.023Z,0.60
2022-11-04T06:37:09.230Z,0.68
2022-11-04T06:39:36.653Z,0.40
2022-11-04T06:42:04.217Z,0.40
2022-11-04T06:44:31.012Z,0.82
2022-11-04T06:46:57.799Z,0.70
2022-11-04T06:49:24.641Z,0.63
2022-11-04T06:51:52.075Z,0.75
2022-11-04T06:54:18.855Z,0.30
2022-11-04T06:56:45.803Z,0.90
2022-11-04T06:59:17.750Z,1.02
2022-11-04T07:01:45.166Z,0.77
2022-11-04T07:04:12.255Z,0.63
2022-11-04T07:06:44.118Z,0.60
2022-11-04T07:09:13.690Z,0.82
2022-11-04T07:11:41.568Z,0.90
2022-11-04T07:14:09.101Z,1.05
2022-11-04T07:16:36.658Z,1.05
2022-11-04T07:19:03.982Z,0.98
2022-11-04T07:21:30.899Z,0.90
2022-11-04T07:23:58.011Z,1.30
2022-11-04T07:26:24.779Z,0.75
2022-11-04T07:28:51.645Z,1.45
2022-11-04T07:31:18.762Z,1.30
2022-11-04T07:33:49.924Z,1.52
2022-11-04T07:36:17.309Z,1.15
2022-11-04T07:38:44.629Z,1.42
2022-11-04T07:41:12.162Z,1.33
2022-11-04T07:43:38.988Z,1.77
2022-11-04T07:46:11.715Z,1.92
2022-11-04T07:48:38.921Z,1.83
2022-11-04T07:51:09.062Z,1.10
2022-11-04T07:53:36.095Z,1.30
2022-11-04T07:56:08.278Z,1.05
2022-11-04T07:58:35.119Z,1.13
2022-11-04T08:01:03.865Z,0.90
2022-11-04T08:03:30.724Z,1.10
2022-11-04T08:05:59.402Z,1.00
2022-11-04T08:08:27.255Z,1.48
2022-11-04T08:10:56.997Z,1.42
2022-11-04T08:13:27.313Z,1.17
2022-11-04T08:15:54.039Z,1.38
2022-11-04T08:18:20.834Z,1.13
2022-11-04T08:20:51.936Z,1.10
2022-11-04T08:23:19.436Z,1.02
2022-11-04T08:25:46.640Z,1.17
2022-11-04T08:28:17.501Z,1.15
2022-11-04T08:31:05.695Z,0.88
2022-11-04T08:33:36.813Z,0.60
2022-11-04T08:36:09.036Z,1.30
2022-11-04T08:38:36.104Z,1.05
2022-11-04T08:41:04.970Z,1.52
2022-11-04T08:43:32.450Z,1.25
2022-11-04T08:45:59.147Z,1.38
2022-11-04T08:48:26.835Z,1.23
2022-11-04T08:50:56.487Z,1.25
2022-11-04T08:53:23.216Z,1.20
2022-11-04T08:55:50.319Z,0.90
2022-11-04T08:58:17.950Z,0.98
2022-11-04T09:00:44.736Z,0.77
2022-11-04T09:03:11.787Z,1.15
2022-11-04T09:05:44.865Z,1.02
2022-11-04T09:08:12.450Z,0.90
2022-11-04T09:10:47.227Z,0.85
2022-11-04T09:13:16.013Z,0.75
2022-11-04T09:15:43.337Z,0.93
2022-11-04T09:18:10.248Z,0.90
2022-11-04T09:20:42.085Z,0.63
2022-11-04T09:23:09.550Z,0.73
2022-11-04T09:25:36.760Z,1.13
2022-11-04T09:28:04.644Z,0.95
2022-11-04T09:30:31.777Z,0.82
2022-11-04T09:32:58.794Z,1.15
2022-11-04T09:35:27.466Z,1.15
2022-11-04T09:37:59.193Z,1.15
2022-11-04T09:40:26.169Z,1.45
2022-11-04T09:43:14.215Z,1.38
2022-11-04T09:45:43.256Z,1.02
2022-11-04T09:48:22.114Z,0.93
2022-11-04T09:50:52.568Z,0.85
2022-11-04T09:53:35.815Z,1.38
2022-11-04T09:56:11.459Z,0.82
2022-11-04T09:58:39.298Z,0.98
2022-11-04T10:01:36.410Z,0.70
2022-11-04T10:04:28.342Z,1.00
2022-11-04T10:07:14.045Z,0.70
2022-11-04T10:09:47.293Z,1.10
2022-11-04T10:12:41.578Z,1.30
2022-11-04T10:15:31.789Z,0.73
2022-11-04T10:18:29.383Z,0.90
2022-11-04T10:20:56.075Z,1.02
2022-11-04T10:23:32.074Z,0.70
2022-11-04T10:26:07.748Z,1.00
2022-11-04T10:28:56.298Z,1.00
2022-11-04T10:31:24.337Z,1.08
2022-11-04T10:33:56.271Z,1.05
2022-11-04T10:36:25.383Z,0.80
2022-11-04T10:38:56.472Z,1.25
2022-11-04T10:41:33.111Z,1.45
2022-11-04T10:44:20.346Z,0.95
2022-11-04T10:47:04.490Z,1.27
2022-11-04T10:49:55.000Z,1.17
2022-11-04T10:52:33.689Z,0.80
2022-11-04T10:55:00.598Z,0.85
2022-11-04T10:57:28.112Z,1.13
2022-11-04T11:00:00.355Z,0.80
2022-11-04T11:02:47.056Z,1.13
2022-11-04T11:05:14.998Z,0.80
2022-11-04T11:07:42.191Z,0.82
2022-11-04T11:10:19.825Z,1.65
2022-11-04T11:12:53.754Z,1.17
2022-11-04T11:15:35.868Z,1.08
2022-11-04T11:18:16.513Z,1.20
2022-11-04T11:20:52.873Z,1.38
2022-11-04T11:26:19.376Z,0.73
2022-11-04T11:29:02.107Z,0.98
2022-11-04T11:31:41.181Z,1.00
2022-11-04T11:34:18.134Z,0.80
2022-11-04T11:36:48.107Z,1.02
2022-11-04T11:39:22.858Z,1.10
2022-11-04T11:42:04.042Z,1.15
2022-11-04T11:44:46.846Z,1.30
2022-11-04T11:47:28.006Z,1.17
2022-11-04T11:50:14.845Z,0.80
2022-11-04T11:52:43.871Z,0.80
2022-11-04T11:55:24.906Z,1.52
2022-11-04T12:01:08.221Z,0.73
2022-11-04T12:10:24.063Z,0.60
2022-11-04T12:13:28.122Z,0.47
2022-11-04T12:16:53.374Z,0.60
2022-11-04T12:19:26.431Z,0.60
2022-11-04T12:22:35.596Z,0.90
2022-11-04T12:25:17.335Z,0.63
2022-11-04T12:28:01.312Z,0.55
2022-11-04T12:30:38.189Z,0.57
2022-11-04T12:33:17.089Z,0.63
2022-11-04T12:35:46.919Z,0.75
2022-11-04T12:38:34.304Z,0.47
2022-11-04T12:44:32.236Z,0.65
2022-11-04T12:47:30.281Z,0.75
2022-11-04T12:50:18.374Z,1.15
2022-11-04T12:53:09.844Z,0.90
2022-11-04T12:56:01.155Z,0.77
2022-11-04T12:59:05.982Z,0.88
2022-11-04T13:01:56.457Z,0.88
2022-11-04T13:04:33.893Z,1.05
2022-11-04T13:07:16.135Z,1.08
2022-11-04T13:09:54.308Z,0.63
2022-11-04T13:12:29.996Z,0.75
2022-11-04T13:15:02.424Z,0.93
2022-11-04T13:17:42.496Z,0.50
2022-11-04T13:20:15.037Z,0.65
2022-11-04T13:23:01.904Z,0.70
2022-11-04T13:25:44.921Z,0.63
2022-11-04T13:28:17.775Z,0.63
2022-11-04T13:31:01.519Z,0.45
2022-11-04T13:33:28.405Z,1.02
2022-11-04T13:36:04.502Z,0.85
2022-11-04T13:38:39.266Z,0.50
2022-11-04T13:41:42.036Z,0.70
2022-11-04T13:44:26.998Z,0.85
2022-11-04T13:47:02.603Z,0.70
2022-11-04T13:49:33.826Z,1.05
2022-11-04T13:52:13.422Z,1.10
2022-11-04T13:54:44.645Z,1.20
2022-11-04T13:57:21.877Z,1.58
2022-11-04T14:00:16.716Z,1.10
2022-11-04T14:02:44.567Z,1.20
2022-11-04T14:05:30.116Z,1.70
2022-11-04T14:08:21.032Z,0.90
2022-11-04T14:10:54.144Z,1.25
2022-11-04T14:13:34.992Z,0.80
2022-11-04T14:16:17.492Z,1.02
2022-11-04T14:18:51.045Z,0.88
2022-11-04T14:21:23.979Z,1.15
2022-11-04T14:23:56.468Z,1.15
2022-11-04T14:26:27.610Z,0.90
2022-11-04T14:29:06.020Z,0.85
2022-11-04T14:31:39.366Z,1.08
2022-11-04T14:34:08.418Z,0.90
2022-11-04T14:36:35.133Z,0.95
2022-11-04T14:39:10.219Z,1.23
2022-11-04T14:41:40.150Z,1.20
2022-11-04T14:44:13.106Z,0.93
2022-11-04T14:46:48.038Z,1.15
2022-11-04T14:49:42.324Z,2.40
2022-11-04T14:52:29.543Z,1.20
2022-11-04T14:55:02.383Z,0.93
2022-11-04T14:57:30.979Z,1.15
2022-11-04T14:59:58.113Z,1.13
2022-11-04T15:02:28.754Z,0.95
2022-11-04T15:05:03.390Z,0.95
2022-11-04T15:07:37.023Z,1.02
2022-11-04T15:10:22.638Z,2.42
2022-11-04T15:12:52.301Z,1.00
2022-11-04T15:15:44.446Z,0.80
2022-11-04T15:18:17.024Z,1.50
2022-11-04T15:20:53.143Z,1.52
2022-11-04T15:23:36.719Z,0.82
2022-11-04T15:26:05.009Z,1.48
2022-11-04T15:28:46.322Z,1.60
2022-11-04T15:31:13.555Z,1.45
2022-11-04T15:33:44.356Z,1.38
2022-11-04T15:36:17.585Z,1.35
2022-11-04T15:38:50.027Z,1.15
2022-11-04T15:41:39.770Z,1.13
2022-11-04T15:44:16.187Z,1.15
2022-11-04T15:49:21.788Z,1.00
2022-11-04T15:51:49.291Z,1.15
2022-11-04T15:54:26.834Z,1.15
2022-11-04T15:56:56.422Z,0.73
2022-11-04T15:59:33.450Z,0.75
2022-11-04T16:02:02.472Z,0.98
2022-11-04T16:04:30.337Z,1.50
2022-11-04T16:07:30.018Z,0.60
2022-11-04T16:09:56.906Z,0.75
2022-11-04T16:12:23.676Z,1.33
2022-11-04T16:14:59.508Z,0.70
2022-11-04T16:17:28.185Z,0.63
2022-11-04T16:20:01.098Z,0.60
2022-11-04T16:22:34.163Z,0.70
2022-11-04T16:25:04.927Z,0.77
2022-11-04T16:27:37.114Z,0.82
2022-11-04T16:30:13.443Z,1.45
2022-11-04T16:32:48.991Z,1.80
2022-11-04T16:35:28.145Z,1.40
2022-11-04T16:37:56.092Z,1.40
2022-11-04T16:40:24.166Z,1.58
2022-11-04T16:42:51.182Z,1.38
2022-11-04T16:45:26.599Z,1.80
2022-11-04T16:47:54.701Z,2.10
2022-11-04T16:50:27.457Z,2.55
2022-11-04T16:52:54.309Z,2.15
2022-11-04T16:55:30.316Z,2.20
2022-11-04T16:58:02.737Z,2.00
2022-11-04T17:00:38.517Z,2.15
2022-11-04T17:03:21.803Z,1.58
2022-11-04T17:05:58.953Z,2.90
2022-11-04T17:08:32.401Z,2.88
2022-11-04T17:11:04.220Z,1.70
2022-11-04T17:13:36.549Z,2.28
2022-11-04T17:16:19.433Z,0.88
2022-11-04T17:18:50.476Z,1.92
2022-11-04T17:21:21.767Z,1.50
2022-11-04T17:23:48.820Z,1.58
2022-11-04T17:26:20.777Z,1.00
2022-11-04T17:28:47.751Z,1.63
2022-11-04T17:31:19.598Z,1.02
2022-11-04T17:33:52.071Z,1.67
2022-11-04T17:36:21.493Z,2.88
2022-11-04T17:38:51.165Z,1.40
2022-11-04T17:41:38.463Z,2.08
2022-11-04T17:44:18.065Z,1.90
2022-11-04T17:46:47.716Z,2.15
2022-11-04T17:49:17.741Z,1.85
2022-11-04T17:51:48.069Z,2.30
2022-11-04T17:54:15.436Z,1.70
2022-11-04T17:56:42.978Z,1.77
2022-11-04T17:59:11.962Z,1.52
2022-11-04T18:01:41.708Z,2.08
2022-11-04T18:04:12.506Z,1.80
2022-11-04T18:06:42.428Z,2.17
2022-11-04T18:09:11.055Z,2.17
2022-11-04T18:12:00.047Z,1.10
2022-11-04T18:14:27.413Z,1.40
2022-11-04T18:16:54.392Z,1.77
2022-11-04T18:19:23.446Z,1.58
2022-11-04T18:21:51.293Z,1.25
2022-11-04T18:24:19.348Z,1.10
2022-11-04T18:26:46.396Z,1.30
2022-11-04T18:29:19.668Z,1.35
2022-11-04T18:31:49.970Z,1.73
2022-11-04T18:34:22.225Z,1.75
2022-11-04T18:36:49.387Z,1.67
2022-11-04T18:39:19.767Z,1.77
2022-11-04T18:41:55.354Z,1.70
2022-11-04T18:44:23.388Z,1.77
2022-11-04T18:46:50.644Z,1.55
2022-11-04T18:49:21.042Z,1.35
2022-11-04T18:51:47.785Z,1.33
2022-11-04T18:54:15.119Z,1.45
2022-11-04T18:56:42.718Z,1.77
2022-11-04T18:59:13.958Z,1.75
2022-11-04T19:01:45.877Z,1.92
2022-11-04T19:04:13.735Z,1.98
2022-11-04T19:06:42.939Z,2.50
2022-11-04T19:09:44.776Z,1.92
2022-11-04T19:12:18.416Z,2.05
2022-11-04T19:14:46.091Z,1.90
2022-11-04T19:17:13.102Z,2.33
2022-11-04T19:19:41.251Z,1.98
2022-11-04T19:22:09.056Z,1.73
2022-11-04T19:24:40.427Z,1.92
2022-11-04T19:27:07.515Z,1.50
2022-11-04T19:29:34.256Z,1.40
2022-11-04T19:32:03.708Z,2.03
2022-11-04T19:34:30.578Z,1.33
2022-11-04T19:36:57.323Z,1.83
2022-11-04T19:39:24.044Z,1.80
2022-11-04T19:42:09.304Z,1.23
2022-11-04T19:44:36.053Z,1.98
2022-11-04T19:47:02.955Z,1.75
2022-11-04T19:49:31.522Z,1.40
2022-11-04T19:51:59.499Z,2.50
2022-11-04T19:54:26.839Z,1.58
2022-11-04T19:56:56.448Z,1.98
2022-11-04T19:59:23.341Z,2.05
2022-11-04T20:01:53.055Z,2.72
2022-11-04T20:04:20.181Z,2.55
2022-11-04T20:06:46.979Z,2.17
2022-11-04T20:09:14.153Z,1.83
2022-11-04T20:12:00.126Z,1.98
2022-11-04T20:14:28.493Z,2.60
2022-11-04T20:16:57.175Z,3.00
2022-11-04T20:19:23.891Z,2.75
2022-11-04T20:21:50.994Z,1.77
2022-11-04T20:24:18.352Z,1.70
2022-11-04T20:26:46.652Z,1.42
2022-11-04T20:29:15.933Z,1.98
2022-11-04T20:31:43.698Z,1.13
2022-11-04T20:34:12.549Z,1.85
2022-11-04T20:36:42.213Z,1.50
2022-11-04T20:39:28.504Z,1.52
2022-11-04T20:41:55.279Z,1.73
2022-11-04T20:44:22.067Z,1.23
2022-11-04T20:46:49.001Z,1.23
2022-11-04T20:49:16.060Z,1.45
2022-11-04T20:51:50.202Z,1.23
2022-11-04T20:54:20.913Z,1.10
2022-11-04T20:56:47.902Z,1.15
2022-11-04T20:59:16.699Z,1.50
2022-11-04T21:01:48.209Z,1.40
2022-11-04T21:04:19.865Z,1.25
2022-11-04T21:06:51.628Z,1.50
2022-11-04T21:09:20.263Z,1.63
2022-11-04T21:11:47.466Z,1.50
2022-11-04T21:14:19.853Z,1.05
2022-11-04T21:16:49.264Z,1.10
2022-11-04T21:19:16.278Z,1.40
2022-11-04T21:21:44.186Z,1.20
2022-11-04T21:24:15.695Z,1.00
2022-11-04T21:26:43.651Z,1.27
2022-11-04T21:29:14.373Z,1.20
2022-11-04T21:31:42.236Z,0.82
2022-11-04T21:34:09.156Z,1.05
2022-11-04T21:36:38.944Z,1.75
2022-11-04T21:39:06.241Z,0.95
2022-11-04T21:41:33.673Z,0.95
2022-11-04T21:44:02.608Z,0.73
2022-11-04T21:46:31.220Z,1.20
2022-11-04T21:48:58.628Z,1.10
2022-11-04T21:51:29.005Z,1.20
2022-11-04T21:53:56.918Z,0.93
2022-11-04T21:56:28.972Z,1.00
2022-11-04T21:58:56.198Z,1.40
2022-11-04T22:01:26.874Z,1.23
2022-11-04T22:03:56.454Z,1.45
2022-11-04T22:06:23.268Z,0.85
2022-11-04T22:08:54.347Z,1.10
2022-11-04T22:11:26.626Z,0.80
2022-11-04T22:14:01.201Z,1.13
2022-11-04T22:16:31.161Z,1.25
2022-11-04T22:19:00.261Z,1.38
2022-11-04T22:21:28.333Z,0.95
2022-11-04T22:23:55.782Z,1.15
2022-11-04T22:26:25.666Z,1.52
2022-11-04T22:28:53.688Z,1.23
2022-11-04T22:31:21.853Z,1.13
2022-11-04T22:33:50.038Z,0.98
2022-11-04T22:36:17.410Z,0.85
2022-11-04T22:38:44.463Z,1.27
2022-11-04T22:41:15.053Z,1.00
2022-11-04T22:43:41.936Z,1.40
2022-11-04T22:46:19.002Z,1.02
2022-11-04T22:48:46.004Z,1.00
2022-11-04T22:51:13.485Z,1.80
2022-11-04T22:53:40.721Z,0.95
2022-11-04T22:56:09.560Z,1.25
2022-11-04T22:58:36.426Z,1.17
2022-11-04T23:01:09.404Z,1.40
2022-11-04T23:03:36.279Z,1.15
2022-11-04T23:06:04.736Z,0.80
2022-11-04T23:08:33.037Z,1.10
2022-11-04T23:11:25.047Z,0.70
2022-11-04T23:14:20.750Z,0.90
2022-11-04T23:17:09.045Z,0.95
2022-11-04T23:19:39.151Z,1.10
2022-11-04T23:22:25.500Z,0.95
2022-11-04T23:25:09.595Z,1.02
2022-11-04T23:28:02.217Z,0.95
2022-11-04T23:30:32.543Z,0.85
2022-11-04T23:33:05.019Z,1.05
2022-11-04T23:36:01.036Z,0.98
2022-11-04T23:38:31.404Z,1.17
2022-11-04T23:41:20.201Z,0.93
2022-11-04T23:43:46.896Z,0.90
2022-11-04T23:46:33.704Z,1.38
2022-11-04T23:49:20.584Z,0.90
2022-11-04T23:52:05.914Z,1.27
2022-11-04T23:54:51.202Z,1.13
2022-11-04T23:57:36.931Z,1.00
